Air Resources Laboratory banner image
Air Resources Laboratory web site National Oceanic and Atmospheric Administration (NOAA)

nd metar


KBIS 231752Z 15011KT 10SM FEW065 SCT095 26/17 A2991 RMK AO2 SLP121 60000
 T02610172 10261 20161 58005 $=
KDIK 231756Z AUTO 14009KT 10SM BKN070 BKN120 21/17 A2990 RMK AO2 RAB20E38
 SLP115 P0002 60002 T02060167 10206 20150 58006=
KDVL 231756Z AUTO 13015G19KT 10SM CLR 27/16 A2997 RMK AO2 SLP157 T02670161
 10267 20167 56006=
KFAR 231753Z 16017G32KT 10SM CLR 28/17 A2999 RMK AO2 PK WND 19032/1747 SLP153
 T02780167 10283 20189 53004=
KGFK 231753Z 14014G20KT 10SM SCT055 BKN250 28/16 A2997 RMK AO2 SLP147 T02830161
 10289 20161 56009=
KHEI 231753Z AUTO 09007KT 10SM OVC017 18/15 A2992 RMK AO2 SLP123 T01830150
 10194 20144 56001=
KISN 231752Z AUTO 12008KT 10SM SCT070 BKN085 24/16 A2988 RMK AO2 SLP109 60000
 T02440161 10244 20156 56013=
KJMS 231756Z AUTO 15013KT 10SM CLR 23/16 A2996 RMK AO2 SLP142 T02330156 10250
 20161 53003=
KMIB 231756Z AUTO 16019G25KT 10SM FEW055 FEW150 SCT190 28/14 A2991 RMK AO2
 SLP128 60000 T02750141 10277 20143 57009 $=
KMOT 231754Z 11016KT 10SM CLR 26/15 A2992 RMK AO2 SLP125 60001 T02610150 10272
 20139 56008=
KN60 231752Z AUTO 13004KT 20/18 A2992 RMK AO1 SLP129 60007 T02000178 10217
 20150 50006=
KRDR 231756Z AUTO 13015KT 10SM FEW060 FEW160 BKN190 28/15 A2998 RMK AO2 SLP154
 T02810154 10281 20172 57007 TSNO $=